Airfield :
LOGIN :

Register | Disclaimer

   EN    FR    IT 

 










Legend :    VFR   Marginal VFR   IFR   Intensive IFR   Very Intensive IFR
Visi :
Ceiling :
>= 8 km
>= 3000ft
5 to 8 km
1000 to 3000 ft
1500m to 5 km
500 to 1000 ft
800 to 1500m
200 to 500 ft
< 800m
< 200 ft
Symbols :   Thunderstorms  Fog  Heavy snow  Heavy precipitations  Wind > 20 kt
SIGMETs :     Misc.  Thunderstorms  Icing  Turbulence  Mountain Waves  Volcanic Ashes






- Airport Elevation : 135 ft
- IATA code : EDI


EGPH - Edinburgh

CURRENT METAR :
  • 030850Z 26012KT 9999 SCT029 SCT044 16/08 Q1015

EXPIRED METARs :
  • 030820Z 25010KT 9999 SCT024 16/09 Q1015
  • 030750Z 28007KT 250V320 9999 SCT019 16/10 Q1015
  • 030720Z 27007KT 240V310 9999 FEW018 14/10 Q1014
  • 030650Z 26009KT 9999 FEW016 14/11 Q1014
  • 030620Z 25009KT 9999 FEW017 SCT033 14/11 Q1014

TAF TAF EGPH
Valid from the 03 at 06:00 until the 04 at 06:00 UTC


030457Z 0306/0406 24012KT 9999 FEW010 SCT030
TEMPO 0306/0310 BKN012
PROB40
TEMPO 0310/0317 25015G27KT 7000 SHRA
PROB30
TEMPO 0322/0406 8000 -RA BKN014
ATIS : +44 131 339 2823



MET'MAP, your aeronautical weather chart ! - Copyright ORBIFLY December 2007 - Disclaimer

ORBIFLY MET'MAP TEAM :

Programming & Development : Alexandra Zaïnal
Original concept : Baudouin d'Aumeries
Technical & hardware support : Manuel Goepfert
Assistance : Marc-Olivier Méhu




SOURCES & CREDITS :

   NOAA